North Sudbury, Massachusetts
Current Conditions -  °F | °C
As of 7:56 AM on Saturday 20 Dec 2014 (Local Time) from KBED Reporting Station
Clear Clear  
Wind Chill: 24°   Ceiling: Unl
Heat Index: 24°   Visibility: 10mi
Dew Point: 19°   Wind: 3mph
Humidity: 81%   Direction: 340°NNW
Pressure: 30.28"   Gusts: NA
Location:  42.3844°N, 71.4233°W
Report Text: KBED 201256Z AUTO 34003KT 10SM CLR M04/M07 A3028 RMK AO2 SLP269 T10441072 TSNO
Loading
Personal Weather Stations






























Interactive Weather Map New forecast layout! Learn more

10-Day Weather Forecast

Advertisements
Track Severe Weather on mobile